sensor_id;sensor_type;location;lat;lon;timestamp;P1;durP1;ratioP1;P2;durP2;ratioP2
1975;SDS011;988;48.016;7.800;2022-08-01T00:02:06;19.70;;;18.50;;
1975;SDS011;988;48.016;7.800;2022-08-01T00:04:32;19.60;;;18.50;;
1975;SDS011;988;48.016;7.800;2022-08-01T00:06:58;19.20;;;18.03;;
1975;SDS011;988;48.016;7.800;2022-08-01T00:09:24;20.10;;;18.77;;
1975;SDS011;988;48.016;7.800;2022-08-01T00:11:50;19.73;;;18.47;;
1975;SDS011;988;48.016;7.800;2022-08-01T00:14:15;19.40;;;18.30;;
1975;SDS011;988;48.016;7.800;2022-08-01T00:16:41;19.30;;;18.20;;
1975;SDS011;988;48.016;7.800;2022-08-01T00:19:07;19.03;;;17.90;;
1975;SDS011;988;48.016;7.800;2022-08-01T00:21:33;20.20;;;19.00;;
1975;SDS011;988;48.016;7.800;2022-08-01T00:23:59;19.90;;;18.50;;
1975;SDS011;988;48.016;7.800;2022-08-01T00:26:25;19.80;;;18.80;;
1975;SDS011;988;48.016;7.800;2022-08-01T00:28:51;19.63;;;18.53;;
1975;SDS011;988;48.016;7.800;2022-08-01T00:31:17;19.73;;;18.63;;
1975;SDS011;988;48.016;7.800;2022-08-01T00:33:43;19.67;;;18.60;;
1975;SDS011;988;48.016;7.800;2022-08-01T00:36:09;20.77;;;19.00;;
1975;SDS011;988;48.016;7.800;2022-08-01T00:38:35;20.13;;;19.03;;
1975;SDS011;988;48.016;7.800;2022-08-01T00:41:01;19.67;;;18.60;;
1975;SDS011;988;48.016;7.800;2022-08-01T00:43:27;21.30;;;20.00;;
1975;SDS011;988;48.016;7.800;2022-08-01T00:45:53;19.90;;;18.80;;
1975;SDS011;988;48.016;7.800;2022-08-01T00:48:19;20.10;;;19.00;;
1975;SDS011;988;48.016;7.800;2022-08-01T00:50:45;20.13;;;18.93;;
1975;SDS011;988;48.016;7.800;2022-08-01T00:53:11;20.07;;;18.90;;
1975;SDS011;988;48.016;7.800;2022-08-01T00:55:37;19.60;;;18.50;;
1975;SDS011;988;48.016;7.800;2022-08-01T00:58:03;19.70;;;18.63;;
1975;SDS011;988;48.016;7.800;2022-08-01T01:00:29;20.23;;;19.13;;
1975;SDS011;988;48.016;7.800;2022-08-01T01:02:55;20.70;;;19.40;;
1975;SDS011;988;48.016;7.800;2022-08-01T01:05:21;20.20;;;19.03;;
1975;SDS011;988;48.016;7.800;2022-08-01T01:07:56;20.33;;;19.13;;
1975;SDS011;988;48.016;7.800;2022-08-01T01:10:25;20.53;;;19.33;;
1975;SDS011;988;48.016;7.800;2022-08-01T01:18:07;20.10;;;18.90;;
1975;SDS011;988;48.016;7.800;2022-08-01T01:20:42;20.97;;;19.37;;
1975;SDS011;988;48.016;7.800;2022-08-01T01:23:15;20.37;;;19.10;;
1975;SDS011;988;48.016;7.800;2022-08-01T01:30:58;20.40;;;19.03;;
1975;SDS011;988;48.016;7.800;2022-08-01T01:33:25;19.87;;;18.67;;
1975;SDS011;988;48.016;7.800;2022-08-01T01:35:55;20.33;;;19.10;;
1975;SDS011;988;48.016;7.800;2022-08-01T01:38:24;19.70;;;18.50;;
1975;SDS011;988;48.016;7.800;2022-08-01T01:40:51;19.60;;;18.50;;
1975;SDS011;988;48.016;7.800;2022-08-01T01:43:18;19.60;;;18.50;;
1975;SDS011;988;48.016;7.800;2022-08-01T01:45:44;20.30;;;19.20;;
1975;SDS011;988;48.016;7.800;2022-08-01T01:48:13;20.00;;;18.80;;
1975;SDS011;988;48.016;7.800;2022-08-01T01:50:39;20.03;;;18.53;;
1975;SDS011;988;48.016;7.800;2022-08-01T01:53:06;19.77;;;18.67;;
1975;SDS011;988;48.016;7.800;2022-08-01T01:55:32;20.27;;;19.10;;
1975;SDS011;988;48.016;7.800;2022-08-01T01:58:00;19.77;;;18.57;;
1975;SDS011;988;48.016;7.800;2022-08-01T02:00:27;20.20;;;18.90;;
1975;SDS011;988;48.016;7.800;2022-08-01T02:02:55;19.73;;;18.63;;
1975;SDS011;988;48.016;7.800;2022-08-01T02:05:21;19.13;;;18.03;;
1975;SDS011;988;48.016;7.800;2022-08-01T02:07:48;20.13;;;18.80;;
1975;SDS011;988;48.016;7.800;2022-08-01T02:10:15;19.63;;;18.53;;
1975;SDS011;988;48.016;7.800;2022-08-01T02:12:43;30.17;;;27.77;;
1975;SDS011;988;48.016;7.800;2022-08-01T02:15:11;19.80;;;18.50;;
1975;SDS011;988;48.016;7.800;2022-08-01T02:17:44;20.40;;;19.00;;
1975;SDS011;988;48.016;7.800;2022-08-01T02:20:12;20.70;;;19.40;;
1975;SDS011;988;48.016;7.800;2022-08-01T02:22:42;21.13;;;19.30;;
1975;SDS011;988;48.016;7.800;2022-08-01T02:25:11;19.80;;;18.57;;
1975;SDS011;988;48.016;7.800;2022-08-01T02:27:41;20.30;;;19.10;;
1975;SDS011;988;48.016;7.800;2022-08-01T02:30:08;20.37;;;19.07;;
1975;SDS011;988;48.016;7.800;2022-08-01T02:32:36;21.00;;;19.63;;
1975;SDS011;988;48.016;7.800;2022-08-01T02:35:04;20.80;;;19.50;;
1975;SDS011;988;48.016;7.800;2022-08-01T02:37:33;21.53;;;19.97;;
1975;SDS011;988;48.016;7.800;2022-08-01T02:39:59;22.07;;;20.87;;
1975;SDS011;988;48.016;7.800;2022-08-01T02:42:26;22.00;;;20.70;;
1975;SDS011;988;48.016;7.800;2022-08-01T02:44:53;22.30;;;21.00;;
1975;SDS011;988;48.016;7.800;2022-08-01T02:47:20;22.17;;;20.77;;
1975;SDS011;988;48.016;7.800;2022-08-01T02:49:48;22.47;;;21.10;;
1975;SDS011;988;48.016;7.800;2022-08-01T02:52:17;21.57;;;20.43;;
1975;SDS011;988;48.016;7.800;2022-08-01T02:54:45;23.17;;;21.77;;
1975;SDS011;988;48.016;7.800;2022-08-01T02:57:11;22.83;;;21.17;;
1975;SDS011;988;48.016;7.800;2022-08-01T02:59:38;21.67;;;20.47;;
1975;SDS011;988;48.016;7.800;2022-08-01T03:02:05;22.50;;;21.10;;
1975;SDS011;988;48.016;7.800;2022-08-01T03:04:35;22.10;;;20.80;;
1975;SDS011;988;48.016;7.800;2022-08-01T03:07:03;22.43;;;21.00;;
1975;SDS011;988;48.016;7.800;2022-08-01T03:09:30;22.03;;;20.40;;
1975;SDS011;988;48.016;7.800;2022-08-01T03:11:59;21.97;;;20.70;;
1975;SDS011;988;48.016;7.800;2022-08-01T03:14:26;22.17;;;20.90;;
1975;SDS011;988;48.016;7.800;2022-08-01T03:16:53;21.60;;;20.37;;
1975;SDS011;988;48.016;7.800;2022-08-01T03:19:20;22.60;;;21.20;;
1975;SDS011;988;48.016;7.800;2022-08-01T03:21:46;21.50;;;20.30;;
1975;SDS011;988;48.016;7.800;2022-08-01T03:24:12;20.57;;;19.13;;
1975;SDS011;988;48.016;7.800;2022-08-01T03:26:39;20.90;;;19.30;;
1975;SDS011;988;48.016;7.800;2022-08-01T03:29:08;21.20;;;19.90;;
1975;SDS011;988;48.016;7.800;2022-08-01T03:31:36;20.33;;;19.17;;
1975;SDS011;988;48.016;7.800;2022-08-01T03:34:03;21.10;;;19.80;;
1975;SDS011;988;48.016;7.800;2022-08-01T03:36:29;20.40;;;19.20;;
1975;SDS011;988;48.016;7.800;2022-08-01T03:38:58;21.30;;;20.00;;
1975;SDS011;988;48.016;7.800;2022-08-01T03:41:26;20.60;;;19.40;;
1975;SDS011;988;48.016;7.800;2022-08-01T03:43:55;20.33;;;19.13;;
1975;SDS011;988;48.016;7.800;2022-08-01T03:46:24;20.47;;;19.17;;
1975;SDS011;988;48.016;7.800;2022-08-01T03:48:52;20.37;;;19.07;;
1975;SDS011;988;48.016;7.800;2022-08-01T03:51:20;20.77;;;19.50;;
1975;SDS011;988;48.016;7.800;2022-08-01T03:53:47;20.30;;;19.00;;
1975;SDS011;988;48.016;7.800;2022-08-01T03:56:16;21.03;;;19.63;;
1975;SDS011;988;48.016;7.800;2022-08-01T03:58:44;21.10;;;19.80;;
1975;SDS011;988;48.016;7.800;2022-08-01T04:01:10;20.83;;;19.63;;
1975;SDS011;988;48.016;7.800;2022-08-01T04:03:36;21.83;;;20.30;;
1975;SDS011;988;48.016;7.800;2022-08-01T04:06:06;21.57;;;20.17;;
1975;SDS011;988;48.016;7.800;2022-08-01T04:08:36;21.40;;;19.97;;
1975;SDS011;988;48.016;7.800;2022-08-01T04:11:03;21.87;;;20.47;;
1975;SDS011;988;48.016;7.800;2022-08-01T04:13:32;22.30;;;20.70;;
1975;SDS011;988;48.016;7.800;2022-08-01T04:15:59;21.87;;;20.10;;
1975;SDS011;988;48.016;7.800;2022-08-01T04:18:25;21.67;;;20.30;;
1975;SDS011;988;48.016;7.800;2022-08-01T04:20:51;24.47;;;20.90;;
1975;SDS011;988;48.016;7.800;2022-08-01T04:23:20;22.13;;;20.63;;
1975;SDS011;988;48.016;7.800;2022-08-01T04:25:48;20.83;;;19.43;;
1975;SDS011;988;48.016;7.800;2022-08-01T04:28:14;21.53;;;20.33;;
1975;SDS011;988;48.016;7.800;2022-08-01T04:30:41;22.87;;;21.47;;
1975;SDS011;988;48.016;7.800;2022-08-01T04:33:08;22.77;;;21.17;;
1975;SDS011;988;48.016;7.800;2022-08-01T04:35:36;22.70;;;20.90;;
1975;SDS011;988;48.016;7.800;2022-08-01T04:38:05;22.43;;;20.67;;
1975;SDS011;988;48.016;7.800;2022-08-01T04:40:32;22.00;;;20.40;;
1975;SDS011;988;48.016;7.800;2022-08-01T04:43:00;20.80;;;19.60;;
1975;SDS011;988;48.016;7.800;2022-08-01T04:45:26;23.50;;;21.60;;
1975;SDS011;988;48.016;7.800;2022-08-01T04:47:53;22.47;;;20.90;;
1975;SDS011;988;48.016;7.800;2022-08-01T04:50:19;22.30;;;20.30;;
1975;SDS011;988;48.016;7.800;2022-08-01T04:52:49;24.90;;;20.97;;
1975;SDS011;988;48.016;7.800;2022-08-01T04:55:16;22.57;;;20.97;;
1975;SDS011;988;48.016;7.800;2022-08-01T04:57:42;20.73;;;19.40;;
1975;SDS011;988;48.016;7.800;2022-08-01T05:00:09;21.87;;;20.30;;
1975;SDS011;988;48.016;7.800;2022-08-01T05:02:36;21.80;;;20.10;;
1975;SDS011;988;48.016;7.800;2022-08-01T05:05:03;22.17;;;20.03;;
1975;SDS011;988;48.016;7.800;2022-08-01T05:07:30;21.13;;;19.83;;
1975;SDS011;988;48.016;7.800;2022-08-01T05:09:56;21.23;;;19.37;;
1975;SDS011;988;48.016;7.800;2022-08-01T05:12:22;21.40;;;19.80;;
1975;SDS011;988;48.016;7.800;2022-08-01T05:14:48;21.77;;;19.33;;
1975;SDS011;988;48.016;7.800;2022-08-01T05:17:14;22.33;;;20.20;;
1975;SDS011;988;48.016;7.800;2022-08-01T05:19:41;21.53;;;19.73;;
1975;SDS011;988;48.016;7.800;2022-08-01T05:22:08;21.77;;;19.63;;
1975;SDS011;988;48.016;7.800;2022-08-01T05:24:35;21.87;;;19.97;;
1975;SDS011;988;48.016;7.800;2022-08-01T05:27:02;25.10;;;20.37;;
1975;SDS011;988;48.016;7.800;2022-08-01T05:29:34;22.63;;;19.93;;
1975;SDS011;988;48.016;7.800;2022-08-01T05:32:00;26.43;;;23.20;;
1975;SDS011;988;48.016;7.800;2022-08-01T05:34:26;21.57;;;19.87;;
1975;SDS011;988;48.016;7.800;2022-08-01T05:36:53;22.90;;;21.00;;
1975;SDS011;988;48.016;7.800;2022-08-01T05:39:19;22.13;;;20.10;;
1975;SDS011;988;48.016;7.800;2022-08-01T05:41:51;22.20;;;20.07;;
1975;SDS011;988;48.016;7.800;2022-08-01T05:44:17;21.43;;;19.73;;
1975;SDS011;988;48.016;7.800;2022-08-01T05:46:43;22.80;;;20.83;;
1975;SDS011;988;48.016;7.800;2022-08-01T05:49:09;22.63;;;20.63;;
1975;SDS011;988;48.016;7.800;2022-08-01T05:51:35;21.60;;;20.20;;
1975;SDS011;988;48.016;7.800;2022-08-01T05:54:01;23.90;;;22.03;;
1975;SDS011;988;48.016;7.800;2022-08-01T05:56:27;24.43;;;20.07;;
1975;SDS011;988;48.016;7.800;2022-08-01T05:58:53;23.57;;;20.10;;
1975;SDS011;988;48.016;7.800;2022-08-01T06:01:19;21.37;;;19.97;;
1975;SDS011;988;48.016;7.800;2022-08-01T06:03:45;22.63;;;20.40;;
1975;SDS011;988;48.016;7.800;2022-08-01T06:06:12;21.80;;;19.90;;
1975;SDS011;988;48.016;7.800;2022-08-01T06:08:39;21.20;;;19.80;;
1975;SDS011;988;48.016;7.800;2022-08-01T06:11:05;21.57;;;20.10;;
1975;SDS011;988;48.016;7.800;2022-08-01T06:13:31;21.40;;;20.00;;
1975;SDS011;988;48.016;7.800;2022-08-01T06:15:57;20.53;;;19.33;;
1975;SDS011;988;48.016;7.800;2022-08-01T06:18:23;20.83;;;19.63;;
1975;SDS011;988;48.016;7.800;2022-08-01T06:20:49;21.23;;;19.80;;
1975;SDS011;988;48.016;7.800;2022-08-01T06:23:15;20.67;;;19.13;;
1975;SDS011;988;48.016;7.800;2022-08-01T06:25:42;20.80;;;19.60;;
1975;SDS011;988;48.016;7.800;2022-08-01T06:28:08;21.87;;;20.50;;
1975;SDS011;988;48.016;7.800;2022-08-01T06:30:34;21.33;;;19.87;;
1975;SDS011;988;48.016;7.800;2022-08-01T06:33:00;22.00;;;20.37;;
1975;SDS011;988;48.016;7.800;2022-08-01T06:35:27;21.63;;;20.13;;
1975;SDS011;988;48.016;7.800;2022-08-01T06:37:54;21.10;;;19.80;;
1975;SDS011;988;48.016;7.800;2022-08-01T06:40:21;21.47;;;19.80;;
1975;SDS011;988;48.016;7.800;2022-08-01T06:42:46;20.97;;;19.70;;
1975;SDS011;988;48.016;7.800;2022-08-01T06:45:13;20.70;;;19.40;;
1975;SDS011;988;48.016;7.800;2022-08-01T06:47:40;21.43;;;20.13;;
1975;SDS011;988;48.016;7.800;2022-08-01T06:50:07;22.30;;;20.90;;
1975;SDS011;988;48.016;7.800;2022-08-01T06:52:33;21.03;;;19.73;;
1975;SDS011;988;48.016;7.800;2022-08-01T06:54:59;21.57;;;19.60;;
1975;SDS011;988;48.016;7.800;2022-08-01T06:57:25;22.13;;;20.63;;
1975;SDS011;988;48.016;7.800;2022-08-01T06:59:52;21.30;;;19.90;;
1975;SDS011;988;48.016;7.800;2022-08-01T07:02:18;21.83;;;20.47;;
1975;SDS011;988;48.016;7.800;2022-08-01T07:04:44;21.90;;;20.60;;
1975;SDS011;988;48.016;7.800;2022-08-01T07:07:10;21.40;;;20.10;;
1975;SDS011;988;48.016;7.800;2022-08-01T07:09:36;21.60;;;20.10;;
1975;SDS011;988;48.016;7.800;2022-08-01T07:12:02;21.20;;;19.80;;
1975;SDS011;988;48.016;7.800;2022-08-01T07:14:28;21.90;;;20.50;;
1975;SDS011;988;48.016;7.800;2022-08-01T07:16:54;21.40;;;20.03;;
1975;SDS011;988;48.016;7.800;2022-08-01T07:19:20;22.63;;;21.13;;
1975;SDS011;988;48.016;7.800;2022-08-01T07:21:46;21.83;;;20.10;;
1975;SDS011;988;48.016;7.800;2022-08-01T07:24:13;21.30;;;19.57;;
1975;SDS011;988;48.016;7.800;2022-08-01T07:26:43;20.93;;;19.63;;
1975;SDS011;988;48.016;7.800;2022-08-01T07:29:09;21.73;;;20.33;;
1975;SDS011;988;48.016;7.800;2022-08-01T07:31:35;23.10;;;20.80;;
1975;SDS011;988;48.016;7.800;2022-08-01T07:34:01;21.57;;;20.20;;
1975;SDS011;988;48.016;7.800;2022-08-01T07:36:27;22.50;;;21.10;;
1975;SDS011;988;48.016;7.800;2022-08-01T07:38:53;22.40;;;21.00;;
1975;SDS011;988;48.016;7.800;2022-08-01T07:41:19;22.17;;;20.70;;
1975;SDS011;988;48.016;7.800;2022-08-01T07:43:45;21.83;;;20.53;;
1975;SDS011;988;48.016;7.800;2022-08-01T07:46:13;22.10;;;20.80;;
1975;SDS011;988;48.016;7.800;2022-08-01T07:48:39;22.47;;;20.87;;
1975;SDS011;988;48.016;7.800;2022-08-01T07:51:05;22.73;;;21.40;;
1975;SDS011;988;48.016;7.800;2022-08-01T07:53:33;22.80;;;21.50;;
1975;SDS011;988;48.016;7.800;2022-08-01T07:55:59;22.37;;;20.70;;
1975;SDS011;988;48.016;7.800;2022-08-01T07:58:27;22.37;;;21.17;;
1975;SDS011;988;48.016;7.800;2022-08-01T08:00:53;23.37;;;21.87;;
1975;SDS011;988;48.016;7.800;2022-08-01T08:03:19;25.07;;;23.30;;
1975;SDS011;988;48.016;7.800;2022-08-01T08:05:45;24.37;;;22.57;;
1975;SDS011;988;48.016;7.800;2022-08-01T08:08:11;24.23;;;22.83;;
1975;SDS011;988;48.016;7.800;2022-08-01T08:10:38;26.30;;;24.53;;
1975;SDS011;988;48.016;7.800;2022-08-01T08:13:04;23.73;;;22.10;;
1975;SDS011;988;48.016;7.800;2022-08-01T08:15:30;23.73;;;22.23;;
1975;SDS011;988;48.016;7.800;2022-08-01T08:17:56;24.37;;;22.87;;
1975;SDS011;988;48.016;7.800;2022-08-01T08:20:22;25.17;;;23.67;;
1975;SDS011;988;48.016;7.800;2022-08-01T08:22:52;24.37;;;22.97;;
1975;SDS011;988;48.016;7.800;2022-08-01T08:25:18;25.03;;;23.20;;
1975;SDS011;988;48.016;7.800;2022-08-01T08:27:44;24.50;;;23.10;;
1975;SDS011;988;48.016;7.800;2022-08-01T08:30:11;24.33;;;22.83;;
1975;SDS011;988;48.016;7.800;2022-08-01T08:32:37;25.13;;;23.37;;
1975;SDS011;988;48.016;7.800;2022-08-01T08:35:04;25.43;;;23.93;;
1975;SDS011;988;48.016;7.800;2022-08-01T08:37:30;24.33;;;22.87;;
1975;SDS011;988;48.016;7.800;2022-08-01T08:39:56;25.27;;;23.70;;
1975;SDS011;988;48.016;7.800;2022-08-01T08:42:22;26.07;;;24.47;;
1975;SDS011;988;48.016;7.800;2022-08-01T08:44:48;24.67;;;23.27;;
1975;SDS011;988;48.016;7.800;2022-08-01T08:47:14;24.90;;;23.40;;
1975;SDS011;988;48.016;7.800;2022-08-01T08:49:42;24.80;;;23.30;;
1975;SDS011;988;48.016;7.800;2022-08-01T08:52:08;25.20;;;23.70;;
1975;SDS011;988;48.016;7.800;2022-08-01T08:54:34;25.07;;;23.60;;
1975;SDS011;988;48.016;7.800;2022-08-01T08:57:01;24.30;;;22.80;;
1975;SDS011;988;48.016;7.800;2022-08-01T08:59:27;24.90;;;23.50;;
1975;SDS011;988;48.016;7.800;2022-08-01T09:01:54;23.37;;;21.77;;
1975;SDS011;988;48.016;7.800;2022-08-01T09:04:21;23.97;;;22.57;;
1975;SDS011;988;48.016;7.800;2022-08-01T09:06:50;24.17;;;22.77;;
1975;SDS011;988;48.016;7.800;2022-08-01T09:09:16;24.37;;;22.80;;
1975;SDS011;988;48.016;7.800;2022-08-01T09:11:41;24.80;;;23.20;;
1975;SDS011;988;48.016;7.800;2022-08-01T09:14:09;25.57;;;23.63;;
1975;SDS011;988;48.016;7.800;2022-08-01T09:16:36;24.40;;;23.00;;
1975;SDS011;988;48.016;7.800;2022-08-01T09:19:06;24.43;;;22.63;;
1975;SDS011;988;48.016;7.800;2022-08-01T09:21:33;24.13;;;22.83;;
1975;SDS011;988;48.016;7.800;2022-08-01T09:23:59;24.10;;;22.70;;
1975;SDS011;988;48.016;7.800;2022-08-01T09:26:31;28.30;;;26.70;;
1975;SDS011;988;48.016;7.800;2022-08-01T09:28:57;35.03;;;32.63;;
1975;SDS011;988;48.016;7.800;2022-08-01T09:31:24;25.23;;;23.73;;
1975;SDS011;988;48.016;7.800;2022-08-01T09:33:56;30.27;;;27.90;;
1975;SDS011;988;48.016;7.800;2022-08-01T09:36:24;25.10;;;23.50;;
1975;SDS011;988;48.016;7.800;2022-08-01T09:38:51;23.90;;;22.60;;
1975;SDS011;988;48.016;7.800;2022-08-01T09:41:17;24.30;;;22.90;;
1975;SDS011;988;48.016;7.800;2022-08-01T09:43:53;25.17;;;23.77;;
1975;SDS011;988;48.016;7.800;2022-08-01T09:46:20;25.10;;;23.60;;
1975;SDS011;988;48.016;7.800;2022-08-01T09:48:57;26.35;;;24.85;;
1975;SDS011;988;48.016;7.800;2022-08-01T09:51:33;25.15;;;23.65;;
1975;SDS011;988;48.016;7.800;2022-08-01T09:54:00;26.70;;;25.20;;
1975;SDS011;988;48.016;7.800;2022-08-01T09:56:26;26.88;;;25.30;;
1975;SDS011;988;48.016;7.800;2022-08-01T09:58:53;24.95;;;23.33;;
1975;SDS011;988;48.016;7.800;2022-08-01T10:01:20;25.55;;;24.15;;
1975;SDS011;988;48.016;7.800;2022-08-01T10:03:46;25.60;;;24.10;;
1975;SDS011;988;48.016;7.800;2022-08-01T10:06:19;27.08;;;25.48;;
1975;SDS011;988;48.016;7.800;2022-08-01T10:08:46;26.67;;;25.17;;
1975;SDS011;988;48.016;7.800;2022-08-01T10:11:12;25.98;;;24.27;;
1975;SDS011;988;48.016;7.800;2022-08-01T10:13:39;26.48;;;24.65;;
1975;SDS011;988;48.016;7.800;2022-08-01T10:16:05;24.98;;;23.58;;
1975;SDS011;988;48.016;7.800;2022-08-01T10:18:32;27.58;;;25.77;;
1975;SDS011;988;48.016;7.800;2022-08-01T10:21:02;26.15;;;24.55;;
1975;SDS011;988;48.016;7.800;2022-08-01T10:23:30;27.20;;;25.70;;
1975;SDS011;988;48.016;7.800;2022-08-01T10:25:58;25.52;;;23.95;;
1975;SDS011;988;48.016;7.800;2022-08-01T10:28:26;25.92;;;24.52;;
1975;SDS011;988;48.016;7.800;2022-08-01T10:30:52;27.20;;;25.25;;
1975;SDS011;988;48.016;7.800;2022-08-01T10:33:18;27.20;;;25.60;;
1975;SDS011;988;48.016;7.800;2022-08-01T10:35:46;26.45;;;24.42;;
1975;SDS011;988;48.016;7.800;2022-08-01T10:38:13;27.00;;;25.50;;
1975;SDS011;988;48.016;7.800;2022-08-01T10:40:40;27.05;;;25.45;;
1975;SDS011;988;48.016;7.800;2022-08-01T10:43:07;26.85;;;25.42;;
1975;SDS011;988;48.016;7.800;2022-08-01T10:45:34;27.90;;;26.30;;
1975;SDS011;988;48.016;7.800;2022-08-01T10:48:20;26.88;;;25.17;;
1975;SDS011;988;48.016;7.800;2022-08-01T10:50:49;25.08;;;23.70;;
1975;SDS011;988;48.016;7.800;2022-08-01T10:53:18;27.02;;;25.55;;
1975;SDS011;988;48.016;7.800;2022-08-01T10:55:58;27.88;;;26.38;;
1975;SDS011;988;48.016;7.800;2022-08-01T11:01:18;27.83;;;26.05;;
1975;SDS011;988;48.016;7.800;2022-08-01T11:03:55;26.73;;;25.13;;
1975;SDS011;988;48.016;7.800;2022-08-01T11:09:00;28.80;;;27.20;;
1975;SDS011;988;48.016;7.800;2022-08-01T11:11:27;31.17;;;29.48;;
1975;SDS011;988;48.016;7.800;2022-08-01T11:14:00;30.83;;;29.13;;
1975;SDS011;988;48.016;7.800;2022-08-01T11:16:33;31.65;;;29.95;;
1975;SDS011;988;48.016;7.800;2022-08-01T11:18:59;30.20;;;28.60;;
1975;SDS011;988;48.016;7.800;2022-08-01T11:24:10;29.70;;;27.95;;
1975;SDS011;988;48.016;7.800;2022-08-01T11:26:36;29.02;;;27.13;;
1975;SDS011;988;48.016;7.800;2022-08-01T11:29:12;28.95;;;27.23;;
1975;SDS011;988;48.016;7.800;2022-08-01T11:31:39;29.20;;;27.60;;
1975;SDS011;988;48.016;7.800;2022-08-01T11:34:05;30.40;;;28.77;;
1975;SDS011;988;48.016;7.800;2022-08-01T11:36:31;28.50;;;26.80;;
1975;SDS011;988;48.016;7.800;2022-08-01T11:41:24;28.67;;;27.17;;
1975;SDS011;988;48.016;7.800;2022-08-01T11:46:47;31.25;;;29.25;;
1975;SDS011;988;48.016;7.800;2022-08-01T11:54:46;30.30;;;28.50;;
1975;SDS011;988;48.016;7.800;2022-08-01T11:57:13;27.08;;;25.48;;
1975;SDS011;988;48.016;7.800;2022-08-01T11:59:41;28.27;;;26.63;;
1975;SDS011;988;48.016;7.800;2022-08-01T12:02:15;28.08;;;26.58;;
1975;SDS011;988;48.016;7.800;2022-08-01T12:04:49;25.88;;;24.38;;
1975;SDS011;988;48.016;7.800;2022-08-01T12:07:16;27.27;;;25.40;;
1975;SDS011;988;48.016;7.800;2022-08-01T12:09:42;26.58;;;24.65;;
1975;SDS011;988;48.016;7.800;2022-08-01T12:12:08;23.87;;;22.47;;
1975;SDS011;988;48.016;7.800;2022-08-01T12:14:34;24.53;;;23.10;;
1975;SDS011;988;48.016;7.800;2022-08-01T12:17:00;26.33;;;24.63;;
1975;SDS011;988;48.016;7.800;2022-08-01T12:19:26;24.50;;;23.10;;
1975;SDS011;988;48.016;7.800;2022-08-01T12:24:32;27.10;;;25.33;;
1975;SDS011;988;48.016;7.800;2022-08-01T12:26:58;25.15;;;23.75;;
1975;SDS011;988;48.016;7.800;2022-08-01T12:29:31;26.20;;;24.70;;
1975;SDS011;988;48.016;7.800;2022-08-01T12:31:56;24.33;;;22.83;;
1975;SDS011;988;48.016;7.800;2022-08-01T12:34:26;24.02;;;22.70;;
1975;SDS011;988;48.016;7.800;2022-08-01T12:36:54;26.00;;;24.10;;
1975;SDS011;988;48.016;7.800;2022-08-01T12:39:20;26.80;;;25.25;;
1975;SDS011;988;48.016;7.800;2022-08-01T12:41:46;25.67;;;23.77;;
1975;SDS011;988;48.016;7.800;2022-08-01T12:44:13;26.05;;;24.42;;
1975;SDS011;988;48.016;7.800;2022-08-01T12:46:40;25.55;;;23.67;;
1975;SDS011;988;48.016;7.800;2022-08-01T12:49:06;24.67;;;23.27;;
1975;SDS011;988;48.016;7.800;2022-08-01T12:51:33;26.30;;;24.45;;
1975;SDS011;988;48.016;7.800;2022-08-01T12:53:59;24.20;;;22.70;;
1975;SDS011;988;48.016;7.800;2022-08-01T12:56:31;24.37;;;22.57;;
1975;SDS011;988;48.016;7.800;2022-08-01T12:58:58;25.27;;;23.67;;
1975;SDS011;988;48.016;7.800;2022-08-01T13:01:27;24.83;;;23.43;;
1975;SDS011;988;48.016;7.800;2022-08-01T13:03:59;24.90;;;23.50;;
1975;SDS011;988;48.016;7.800;2022-08-01T13:06:27;25.03;;;23.53;;
1975;SDS011;988;48.016;7.800;2022-08-01T13:08:54;25.50;;;24.10;;
1975;SDS011;988;48.016;7.800;2022-08-01T13:11:20;26.00;;;24.20;;
1975;SDS011;988;48.016;7.800;2022-08-01T13:13:47;25.00;;;23.40;;
1975;SDS011;988;48.016;7.800;2022-08-01T13:16:14;24.40;;;23.10;;
1975;SDS011;988;48.016;7.800;2022-08-01T13:18:40;24.80;;;23.30;;
1975;SDS011;988;48.016;7.800;2022-08-01T13:21:17;24.80;;;23.40;;
1975;SDS011;988;48.016;7.800;2022-08-01T13:26:44;25.67;;;24.17;;
1975;SDS011;988;48.016;7.800;2022-08-01T13:29:15;23.93;;;22.53;;
1975;SDS011;988;48.016;7.800;2022-08-01T13:31:41;24.00;;;22.57;;
1975;SDS011;988;48.016;7.800;2022-08-01T13:34:07;22.63;;;21.23;;
1975;SDS011;988;48.016;7.800;2022-08-01T13:36:34;23.67;;;22.20;;
1975;SDS011;988;48.016;7.800;2022-08-01T13:39:00;23.77;;;22.37;;
1975;SDS011;988;48.016;7.800;2022-08-01T13:41:45;24.00;;;22.60;;
1975;SDS011;988;48.016;7.800;2022-08-01T13:44:12;23.87;;;22.37;;
1975;SDS011;988;48.016;7.800;2022-08-01T13:46:38;23.93;;;22.40;;
1975;SDS011;988;48.016;7.800;2022-08-01T13:49:05;24.03;;;22.53;;
1975;SDS011;988;48.016;7.800;2022-08-01T13:51:31;23.33;;;22.03;;
1975;SDS011;988;48.016;7.800;2022-08-01T13:53:57;23.03;;;21.73;;
1975;SDS011;988;48.016;7.800;2022-08-01T13:56:23;23.40;;;21.97;;
1975;SDS011;988;48.016;7.800;2022-08-01T13:58:50;23.90;;;22.50;;
1975;SDS011;988;48.016;7.800;2022-08-01T14:01:16;24.00;;;22.50;;
1975;SDS011;988;48.016;7.800;2022-08-01T14:03:42;24.63;;;23.00;;
1975;SDS011;988;48.016;7.800;2022-08-01T14:06:08;24.30;;;22.80;;
1975;SDS011;988;48.016;7.800;2022-08-01T14:08:34;23.60;;;22.00;;
1975;SDS011;988;48.016;7.800;2022-08-01T14:11:00;23.60;;;22.10;;
1975;SDS011;988;48.016;7.800;2022-08-01T14:13:26;23.83;;;22.23;;
1975;SDS011;988;48.016;7.800;2022-08-01T14:15:52;24.00;;;22.57;;
1975;SDS011;988;48.016;7.800;2022-08-01T14:18:18;28.80;;;26.00;;
1975;SDS011;988;48.016;7.800;2022-08-01T14:20:44;24.63;;;23.00;;
1975;SDS011;988;48.016;7.800;2022-08-01T14:23:10;24.40;;;22.93;;
1975;SDS011;988;48.016;7.800;2022-08-01T14:25:37;23.77;;;22.40;;
1975;SDS011;988;48.016;7.800;2022-08-01T14:28:03;23.87;;;22.27;;
1975;SDS011;988;48.016;7.800;2022-08-01T14:30:29;25.33;;;23.13;;
1975;SDS011;988;48.016;7.800;2022-08-01T14:32:56;24.77;;;22.87;;
1975;SDS011;988;48.016;7.800;2022-08-01T14:35:22;23.90;;;22.40;;
1975;SDS011;988;48.016;7.800;2022-08-01T14:37:48;24.40;;;22.80;;
1975;SDS011;988;48.016;7.800;2022-08-01T14:40:14;24.00;;;22.43;;
1975;SDS011;988;48.016;7.800;2022-08-01T14:42:40;23.03;;;21.73;;
1975;SDS011;988;48.016;7.800;2022-08-01T14:45:06;23.30;;;21.70;;
1975;SDS011;988;48.016;7.800;2022-08-01T14:47:39;23.23;;;21.73;;
1975;SDS011;988;48.016;7.800;2022-08-01T14:50:06;23.90;;;22.20;;
1975;SDS011;988;48.016;7.800;2022-08-01T14:52:32;24.90;;;23.20;;
1975;SDS011;988;48.016;7.800;2022-08-01T14:54:59;23.43;;;21.93;;
1975;SDS011;988;48.016;7.800;2022-08-01T14:57:25;23.53;;;22.13;;
1975;SDS011;988;48.016;7.800;2022-08-01T14:59:51;24.00;;;22.30;;
1975;SDS011;988;48.016;7.800;2022-08-01T15:02:17;23.40;;;21.90;;
1975;SDS011;988;48.016;7.800;2022-08-01T15:04:44;23.13;;;21.70;;
1975;SDS011;988;48.016;7.800;2022-08-01T15:07:10;22.20;;;20.90;;
1975;SDS011;988;48.016;7.800;2022-08-01T15:09:36;23.40;;;21.93;;
1975;SDS011;988;48.016;7.800;2022-08-01T15:12:02;23.20;;;21.70;;
1975;SDS011;988;48.016;7.800;2022-08-01T15:14:28;22.97;;;21.60;;
1975;SDS011;988;48.016;7.800;2022-08-01T15:17:23;23.03;;;21.43;;
1975;SDS011;988;48.016;7.800;2022-08-01T15:19:50;23.10;;;21.60;;
1975;SDS011;988;48.016;7.800;2022-08-01T15:22:17;23.63;;;22.20;;
1975;SDS011;988;48.016;7.800;2022-08-01T15:24:43;23.50;;;22.10;;
1975;SDS011;988;48.016;7.800;2022-08-01T15:27:09;23.37;;;21.97;;
1975;SDS011;988;48.016;7.800;2022-08-01T15:29:35;24.03;;;22.43;;
1975;SDS011;988;48.016;7.800;2022-08-01T15:32:02;23.93;;;22.00;;
1975;SDS011;988;48.016;7.800;2022-08-01T15:34:29;23.27;;;21.63;;
1975;SDS011;988;48.016;7.800;2022-08-01T15:36:55;24.07;;;22.27;;